createdAt,value
2022-12-11T10:22:43.739Z,7.21
2022-12-11T10:25:42.037Z,7.22
2022-12-11T10:28:31.125Z,7.27
2022-12-11T10:31:25.757Z,7.33
2022-12-11T10:40:04.341Z,7.64
2022-12-11T10:43:19.847Z,7.67
2022-12-11T10:46:05.273Z,7.52
2022-12-11T10:48:57.153Z,7.53
2022-12-11T10:51:51.693Z,7.49
2022-12-11T10:54:42.109Z,7.40
2022-12-11T10:57:21.265Z,7.47
2022-12-11T10:59:50.595Z,7.51
2022-12-11T11:02:23.077Z,7.34
2022-12-11T11:04:50.076Z,7.45
2022-12-11T11:07:21.948Z,7.33
2022-12-11T11:09:48.723Z,7.27
2022-12-11T11:12:21.497Z,7.32
2022-12-11T11:14:59.625Z,7.30
2022-12-11T11:17:32.100Z,7.22
2022-12-11T11:20:13.279Z,7.10
2022-12-11T11:22:50.917Z,7.02
2022-12-11T11:25:22.985Z,7.04
2022-12-11T11:27:55.515Z,6.93
2022-12-11T11:30:26.810Z,7.26
2022-12-11T11:32:56.481Z,7.18
2022-12-11T11:35:24.079Z,7.48
2022-12-11T11:38:13.997Z,7.56
2022-12-11T11:40:44.595Z,7.31
2022-12-11T11:43:19.014Z,7.18
2022-12-11T11:46:07.666Z,7.16
2022-12-11T11:48:40.437Z,7.26
2022-12-11T11:51:14.356Z,7.28
2022-12-11T11:53:41.481Z,7.18
2022-12-11T11:56:20.074Z,7.11
2022-12-11T11:59:00.241Z,7.21
2022-12-11T12:01:28.741Z,7.16
2022-12-11T12:03:56.584Z,7.10
2022-12-11T12:06:39.857Z,7.02
2022-12-11T12:09:20.779Z,7.01
2022-12-11T12:11:55.987Z,7.05
2022-12-11T12:14:51.737Z,7.00
2022-12-11T12:17:39.509Z,7.02
2022-12-11T12:20:18.193Z,6.80
2022-12-11T12:22:57.414Z,6.88
2022-12-11T12:25:28.596Z,6.86
2022-12-11T12:28:03.898Z,6.85
2022-12-11T12:30:36.859Z,6.88
2022-12-11T12:33:21.799Z,6.74
2022-12-11T12:35:58.828Z,6.66
2022-12-11T12:38:41.486Z,6.80
2022-12-11T12:41:15.839Z,6.75
2022-12-11T12:44:02.937Z,6.78
2022-12-11T12:46:43.707Z,6.57
2022-12-11T12:49:17.054Z,6.42
2022-12-11T12:51:45.044Z,6.56
2022-12-11T17:01:26.887Z,3.67
2022-12-11T17:03:54.194Z,3.44
2022-12-11T17:06:21.146Z,3.68
2022-12-11T17:08:48.130Z,3.54
2022-12-11T17:11:20.754Z,3.79
2022-12-11T17:13:49.140Z,3.65
2022-12-11T17:16:30.139Z,3.78
2022-12-11T17:22:20.236Z,3.62
2022-12-11T17:25:01.277Z,3.81
2022-12-11T17:27:37.263Z,3.54
2022-12-11T17:30:04.892Z,3.73
2022-12-11T17:32:39.888Z,3.53
2022-12-11T17:35:07.091Z,3.63
2022-12-11T17:37:35.147Z,3.81
2022-12-11T17:40:22.208Z,3.81
2022-12-11T17:42:55.994Z,3.51
2022-12-11T17:48:21.296Z,3.62
2022-12-11T17:50:49.588Z,3.56
2022-12-11T17:53:49.886Z,3.56
2022-12-11T17:56:23.772Z,3.69
2022-12-11T17:59:09.776Z,3.90
2022-12-11T18:01:36.714Z,3.83
2022-12-11T18:04:04.426Z,3.84
2022-12-11T18:06:31.681Z,3.78
2022-12-11T18:09:00.075Z,3.82
2022-12-11T18:11:26.829Z,3.97
2022-12-11T18:14:06.948Z,3.77
2022-12-11T18:16:50.613Z,3.53
2022-12-11T18:19:25.462Z,3.84
2022-12-11T18:21:57.855Z,3.74
2022-12-11T18:24:33.333Z,3.87
2022-12-11T18:27:10.880Z,3.86
2022-12-11T18:29:37.655Z,3.77
2022-12-11T18:32:06.362Z,3.89
2022-12-11T18:34:33.574Z,3.82
2022-12-11T18:37:00.653Z,3.79
2022-12-11T18:39:40.321Z,3.89
2022-12-11T18:42:35.191Z,3.91
2022-12-11T18:45:09.805Z,3.79
2022-12-11T18:47:50.009Z,3.93
2022-12-11T18:50:25.867Z,3.73
2022-12-11T18:52:53.920Z,3.79
2022-12-11T18:55:22.177Z,3.87
2022-12-11T18:57:49.043Z,3.80
2022-12-11T19:00:18.146Z,3.70
2022-12-11T19:02:52.749Z,3.52
2022-12-11T19:05:22.649Z,3.64
2022-12-11T19:08:00.481Z,3.65
2022-12-11T19:10:53.963Z,3.91
2022-12-11T19:13:20.830Z,3.84
2022-12-11T19:16:04.342Z,3.79
2022-12-11T19:18:32.106Z,3.91
2022-12-11T19:21:06.753Z,3.66
2022-12-11T19:23:36.719Z,3.82
2022-12-11T19:26:10.763Z,3.72
2022-12-11T19:29:01.714Z,3.63
2022-12-11T19:31:51.986Z,3.89
2022-12-11T19:34:32.871Z,3.63
2022-12-11T19:37:32.970Z,3.58
2022-12-11T19:44:03.952Z,3.55
2022-12-11T19:46:56.820Z,3.52
2022-12-11T19:49:54.364Z,3.64
2022-12-11T19:52:41.509Z,3.70
2022-12-11T19:55:17.238Z,3.63
2022-12-11T19:58:00.507Z,3.67
2022-12-11T20:00:48.981Z,3.83
2022-12-11T20:03:29.202Z,3.56
2022-12-11T20:06:07.929Z,3.53
2022-12-11T20:08:45.285Z,3.81
2022-12-11T20:11:40.323Z,3.61
2022-12-11T20:14:16.574Z,3.59
2022-12-11T20:17:23.717Z,3.51
2022-12-11T20:20:17.213Z,3.74
2022-12-11T20:22:59.661Z,3.46
2022-12-11T20:28:33.118Z,3.48
2022-12-11T20:31:13.714Z,3.66
2022-12-11T20:34:02.804Z,3.49
2022-12-11T20:37:00.254Z,3.57
2022-12-11T20:39:44.547Z,3.45
2022-12-11T20:42:32.617Z,3.65
2022-12-11T20:45:14.192Z,3.50
2022-12-11T20:48:45.624Z,3.50
2022-12-11T20:51:25.495Z,3.46
2022-12-11T20:54:02.070Z,3.34
2022-12-11T20:56:40.296Z,3.40
2022-12-11T20:59:20.422Z,3.38
2022-12-11T21:02:19.321Z,3.47
2022-12-11T21:05:13.600Z,3.54
2022-12-11T21:07:46.778Z,3.23
2022-12-11T21:10:37.718Z,3.42
2022-12-11T21:13:27.316Z,3.26
2022-12-11T21:19:33.409Z,3.27
2022-12-11T21:22:15.861Z,3.22
2022-12-11T21:24:47.237Z,3.13
2022-12-11T23:03:39.557Z,3.20
2022-12-11T23:06:19.333Z,3.05
2022-12-11T23:09:01.166Z,3.17
2022-12-11T23:11:56.266Z,3.13
2022-12-11T23:14:51.560Z,2.91
2022-12-11T23:17:26.694Z,3.11
2022-12-11T23:20:14.931Z,3.10
2022-12-11T23:25:38.437Z,2.93
2022-12-11T23:28:17.501Z,3.01
2022-12-11T23:30:55.767Z,2.91
2022-12-11T23:33:40.640Z,3.01
2022-12-11T23:36:35.980Z,2.98
2022-12-11T23:39:08.090Z,3.05
2022-12-11T23:41:52.148Z,3.01
2022-12-11T23:44:32.835Z,3.04
2022-12-11T23:47:26.466Z,2.96
2022-12-11T23:50:04.721Z,2.85
2022-12-11T23:52:54.940Z,3.09
2022-12-11T23:55:52.998Z,2.84
2022-12-11T23:58:38.678Z,2.90
